createdAt,value
2017-12-12T00:01:30.840Z,2.90
2017-12-12T00:03:57.681Z,2.90
2017-12-12T00:06:24.432Z,2.90
2017-12-12T00:08:50.384Z,2.90
2017-12-12T00:11:16.354Z,2.90
2017-12-12T00:13:43.069Z,2.90
2017-12-12T00:16:09.052Z,2.90
2017-12-12T00:18:35.024Z,3.00
2017-12-12T00:21:01.086Z,3.00
2017-12-12T00:23:27.072Z,3.00
2017-12-12T00:25:53.024Z,3.10
2017-12-12T00:28:19.013Z,3.10
2017-12-12T00:30:45.020Z,3.10
2017-12-12T00:33:10.982Z,3.00
2017-12-12T00:35:37.070Z,2.80
2017-12-12T00:38:03.028Z,2.80
2017-12-12T00:40:29.018Z,2.80
2017-12-12T00:42:56.980Z,2.90
2017-12-12T00:45:22.986Z,2.90
2017-12-12T00:47:48.951Z,3.00
2017-12-12T00:50:14.967Z,3.00
2017-12-12T00:52:40.913Z,2.90
2017-12-12T00:55:06.922Z,2.90
2017-12-12T00:57:33.104Z,2.90
2017-12-12T00:59:59.085Z,2.90
2017-12-12T01:02:25.037Z,2.90
2017-12-12T01:04:51.432Z,3.00
2017-12-12T01:07:17.424Z,3.00
2017-12-12T01:09:44.144Z,3.00
2017-12-12T01:12:10.160Z,3.00
2017-12-12T01:14:36.132Z,3.00
2017-12-12T01:17:02.101Z,3.10
2017-12-12T01:19:29.585Z,2.90
2017-12-12T01:21:56.303Z,3.00
2017-12-12T01:24:22.248Z,2.90
2017-12-12T01:26:48.957Z,2.90
2017-12-12T01:29:14.923Z,2.90
2017-12-12T01:31:40.908Z,2.90
2017-12-12T01:34:06.900Z,2.90
2017-12-12T01:36:32.939Z,3.00
2017-12-12T01:38:58.913Z,3.00
2017-12-12T01:41:24.896Z,3.20
2017-12-12T01:43:50.842Z,3.40
2017-12-12T01:46:16.837Z,3.50
2017-12-12T01:48:42.798Z,3.50
2017-12-12T01:51:08.759Z,3.60
2017-12-12T01:53:34.742Z,3.50
2017-12-12T01:56:00.720Z,3.40
2017-12-12T01:58:26.710Z,3.40
2017-12-12T02:00:52.864Z,3.50
2017-12-12T02:03:18.905Z,3.50
2017-12-12T02:05:45.620Z,3.50
2017-12-12T02:08:11.864Z,3.50
2017-12-12T02:10:38.632Z,3.60
2017-12-12T02:13:04.626Z,3.60
2017-12-12T02:15:31.340Z,3.80
2017-12-12T02:17:57.380Z,3.80
2017-12-12T02:20:23.332Z,3.70
2017-12-12T02:22:49.532Z,3.70
2017-12-12T02:25:16.240Z,3.60
2017-12-12T02:27:42.203Z,3.60
2017-12-12T02:30:08.921Z,3.50
2017-12-12T02:32:34.890Z,3.50
2017-12-12T02:35:00.881Z,3.60
2017-12-12T02:37:27.600Z,3.40
2017-12-12T02:39:53.557Z,3.40
2017-12-12T02:42:19.615Z,3.50
2017-12-12T02:44:45.775Z,3.50
2017-12-12T02:47:11.727Z,3.50
2017-12-12T02:49:37.685Z,3.50
2017-12-12T02:52:03.681Z,3.50
2017-12-12T02:54:29.672Z,3.40
2017-12-12T02:56:56.392Z,3.20
2017-12-12T02:59:22.371Z,3.20
2017-12-12T03:01:48.342Z,3.10
2017-12-12T03:04:15.112Z,3.20
2017-12-12T03:06:41.364Z,3.20
2017-12-12T03:09:07.369Z,3.20
2017-12-12T03:11:33.336Z,3.30
2017-12-12T03:14:00.065Z,3.30
2017-12-12T03:16:26.020Z,3.30
2017-12-12T03:18:52.749Z,3.30
2017-12-12T03:21:18.712Z,3.40
2017-12-12T03:23:44.680Z,3.30
2017-12-12T03:26:10.650Z,3.30
2017-12-12T03:28:36.636Z,3.20
2017-12-12T03:31:03.327Z,3.30
2017-12-12T03:33:29.315Z,3.30
2017-12-12T03:35:55.521Z,3.20
2017-12-12T03:38:22.216Z,3.20
2017-12-12T03:40:48.203Z,3.20
2017-12-12T03:43:14.166Z,3.30
2017-12-12T03:45:40.124Z,3.10
2017-12-12T03:48:06.903Z,3.20
2017-12-12T03:50:32.899Z,3.20
2017-12-12T03:52:59.611Z,3.10
2017-12-12T03:55:25.572Z,3.10
2017-12-12T03:57:51.565Z,3.10
2017-12-12T04:00:18.280Z,3.00
2017-12-12T04:02:44.280Z,3.00
2017-12-12T04:05:10.252Z,3.10
2017-12-12T04:07:37.022Z,3.10
2017-12-12T04:10:02.983Z,3.10
2017-12-12T04:12:28.948Z,3.10
2017-12-12T04:14:54.992Z,3.20
2017-12-12T04:17:20.967Z,3.10
2017-12-12T04:19:46.939Z,3.00
2017-12-12T04:22:12.912Z,2.90
2017-12-12T04:24:38.884Z,2.90
2017-12-12T04:27:04.863Z,2.90
2017-12-12T04:29:31.608Z,3.00
2017-12-12T04:31:58.324Z,2.90
2017-12-12T04:34:24.288Z,2.90
2017-12-12T04:36:50.258Z,2.80
2017-12-12T04:39:16.256Z,2.80
2017-12-12T04:41:42.251Z,2.90
2017-12-12T04:44:08.257Z,3.00
2017-12-12T04:46:34.974Z,3.00
2017-12-12T04:49:01.761Z,3.00
2017-12-12T04:51:27.731Z,3.00
2017-12-12T04:53:54.469Z,3.00
2017-12-12T04:56:21.201Z,3.10
2017-12-12T04:58:47.425Z,3.10
2017-12-12T05:01:13.393Z,3.00
2017-12-12T05:03:39.368Z,3.00
2017-12-12T05:06:05.390Z,2.90
2017-12-12T05:08:31.350Z,3.00
2017-12-12T05:10:57.343Z,3.00
2017-12-12T05:13:23.323Z,2.90
2017-12-12T05:15:49.292Z,3.00
2017-12-12T05:18:15.252Z,2.90
2017-12-12T05:20:41.249Z,2.90
2017-12-12T05:23:07.980Z,3.00
2017-12-12T05:25:34.676Z,3.00
2017-12-12T05:28:00.659Z,3.00
2017-12-12T05:30:26.644Z,2.90
2017-12-12T05:32:52.628Z,2.90
2017-12-12T05:35:18.580Z,3.10
2017-12-12T05:37:44.711Z,3.20
2017-12-12T05:40:11.444Z,3.10
2017-12-12T05:42:37.408Z,3.10
2017-12-12T05:45:03.380Z,3.20
2017-12-12T05:47:29.340Z,3.30
2017-12-12T05:49:56.055Z,2.90
2017-12-12T05:52:22.288Z,2.90
2017-12-12T05:54:49.000Z,2.60
2017-12-12T05:57:14.975Z,2.60
2017-12-12T05:59:40.968Z,2.70
2017-12-12T06:02:06.955Z,2.80
2017-12-12T06:04:32.965Z,2.80
2017-12-12T06:06:58.965Z,2.80
2017-12-12T06:09:24.932Z,2.80
2017-12-12T06:11:50.912Z,2.70
2017-12-12T06:14:16.940Z,2.80
2017-12-12T06:16:42.920Z,2.70
2017-12-12T06:19:08.944Z,2.70
2017-12-12T06:21:34.925Z,2.70
2017-12-12T06:24:00.918Z,2.80
2017-12-12T06:26:26.889Z,2.70
2017-12-12T06:28:53.241Z,2.70
2017-12-12T06:31:19.959Z,2.60
2017-12-12T06:33:45.980Z,2.60
2017-12-12T06:36:11.976Z,2.70
2017-12-12T06:38:37.957Z,2.70
2017-12-12T06:41:04.663Z,2.70
2017-12-12T06:43:30.909Z,2.60
2017-12-12T06:45:56.902Z,2.70
2017-12-12T06:48:22.869Z,2.70
2017-12-12T06:50:48.861Z,2.60
2017-12-12T06:53:14.840Z,2.70
2017-12-12T06:55:40.837Z,2.70
2017-12-12T06:58:07.627Z,2.70
2017-12-12T07:00:33.620Z,2.70
2017-12-12T07:02:59.614Z,2.80
2017-12-12T07:05:26.321Z,2.80
2017-12-12T07:07:52.304Z,2.80
2017-12-12T07:10:18.284Z,2.80
2017-12-12T07:12:45.022Z,2.90
2017-12-12T07:15:11.746Z,2.80
2017-12-12T07:17:37.763Z,2.80
2017-12-12T07:20:03.753Z,2.70
2017-12-12T07:22:29.721Z,2.60
2017-12-12T07:24:55.704Z,2.50
2017-12-12T07:27:21.665Z,2.60
2017-12-12T07:29:47.653Z,2.50
2017-12-12T07:32:13.624Z,2.60
2017-12-12T07:34:40.348Z,2.70
2017-12-12T07:37:07.115Z,2.60
2017-12-12T07:39:33.079Z,2.60
2017-12-12T07:41:59.053Z,2.60
2017-12-12T07:44:25.044Z,2.60
2017-12-12T07:46:51.032Z,2.70
2017-12-12T07:49:17.004Z,2.70
2017-12-12T07:51:43.846Z,2.80
2017-12-12T07:54:09.860Z,2.80
2017-12-12T07:56:36.584Z,2.70
2017-12-12T07:59:02.564Z,2.70
2017-12-12T08:01:28.536Z,2.80
2017-12-12T08:03:54.504Z,2.60
2017-12-12T08:06:20.480Z,2.70
2017-12-12T08:08:46.450Z,2.90
2017-12-12T08:11:12.406Z,2.90
2017-12-12T08:13:38.401Z,2.90
2017-12-12T08:16:04.355Z,2.90
2017-12-12T08:18:30.320Z,2.90
2017-12-12T08:20:56.300Z,2.90
2017-12-12T08:23:22.298Z,3.00
2017-12-12T08:25:48.273Z,2.90
2017-12-12T08:28:14.267Z,2.90
2017-12-12T08:30:40.237Z,2.90
2017-12-12T08:33:06.192Z,2.90
2017-12-12T08:35:32.206Z,2.90
2017-12-12T08:37:58.203Z,2.90
2017-12-12T08:40:24.187Z,2.90
2017-12-12T08:42:50.900Z,2.90
2017-12-12T08:45:16.884Z,2.90
2017-12-12T08:47:42.869Z,2.90
2017-12-12T08:50:08.859Z,2.90
2017-12-12T08:52:34.812Z,2.90
2017-12-12T08:55:01.532Z,2.90
2017-12-12T08:57:28.257Z,2.90
2017-12-12T08:59:54.264Z,2.90
2017-12-12T09:02:20.247Z,2.80
2017-12-12T09:04:46.208Z,2.80
2017-12-12T09:07:12.362Z,2.90
2017-12-12T09:09:38.360Z,2.80
2017-12-12T09:12:04.351Z,2.90
2017-12-12T09:14:30.747Z,2.90
2017-12-12T09:16:57.482Z,2.90
2017-12-12T09:19:23.440Z,2.90
2017-12-12T09:21:49.436Z,3.00
2017-12-12T09:24:15.441Z,3.00
2017-12-12T09:26:41.469Z,2.90
2017-12-12T09:29:07.449Z,2.90
2017-12-12T09:31:33.419Z,3.00
2017-12-12T09:34:00.160Z,3.00
2017-12-12T09:36:26.880Z,3.00
2017-12-12T09:38:52.840Z,3.00
2017-12-12T09:41:19.104Z,3.00
2017-12-12T09:43:45.072Z,3.10
2017-12-12T09:46:11.796Z,3.10
2017-12-12T09:48:38.744Z,3.10
2017-12-12T09:51:04.696Z,3.10
2017-12-12T09:53:30.684Z,3.00
2017-12-12T09:55:56.636Z,3.20
2017-12-12T09:58:22.589Z,3.30
2017-12-12T10:00:48.577Z,3.20
2017-12-12T10:03:14.537Z,3.10
2017-12-12T10:05:40.504Z,3.10
2017-12-12T10:08:07.552Z,3.00
2017-12-12T10:10:34.274Z,3.00
2017-12-12T10:13:00.340Z,3.00
2017-12-12T10:15:26.300Z,2.90
2017-12-12T10:17:52.276Z,2.90
2017-12-12T10:20:18.245Z,2.90
2017-12-12T10:22:45.112Z,2.90
2017-12-12T10:25:11.844Z,3.10
2017-12-12T10:27:37.809Z,3.10
2017-12-12T10:30:03.798Z,3.00
2017-12-12T10:32:30.492Z,3.00
2017-12-12T10:34:56.464Z,2.90
2017-12-12T10:37:23.170Z,2.90
2017-12-12T10:39:49.164Z,2.90
2017-12-12T10:42:15.140Z,2.90
2017-12-12T10:44:41.860Z,3.10
2017-12-12T10:47:07.816Z,3.00
2017-12-12T10:49:34.104Z,3.00
2017-12-12T10:52:00.072Z,3.00
2017-12-12T10:54:26.043Z,2.90
2017-12-12T10:56:52.184Z,3.00
2017-12-12T10:59:18.140Z,3.00
2017-12-12T11:01:44.123Z,3.00
2017-12-12T11:04:10.881Z,2.90
2017-12-12T11:06:37.588Z,2.80
2017-12-12T11:09:03.584Z,2.80
2017-12-12T11:11:29.596Z,2.90
2017-12-12T11:13:55.578Z,2.80
2017-12-12T11:16:22.284Z,2.80
2017-12-12T11:18:48.319Z,2.80
2017-12-12T11:21:14.336Z,2.80
2017-12-12T11:23:40.340Z,2.90
2017-12-12T11:26:06.309Z,2.80
2017-12-12T11:28:33.041Z,2.70
2017-12-12T11:30:59.741Z,2.70
2017-12-12T11:33:25.738Z,2.70
2017-12-12T11:35:51.708Z,2.60
2017-12-12T11:38:17.665Z,2.70
2017-12-12T11:40:43.672Z,2.60
2017-12-12T11:43:10.397Z,2.70
2017-12-12T11:45:36.404Z,2.70
2017-12-12T11:48:03.109Z,2.70
2017-12-12T11:50:29.127Z,2.70
2017-12-12T11:52:55.116Z,2.70
2017-12-12T11:55:21.838Z,2.60
2017-12-12T11:57:47.811Z,2.60
2017-12-12T12:00:13.812Z,2.60
2017-12-12T12:02:39.820Z,2.60
2017-12-12T12:05:06.745Z,2.70
2017-12-12T12:07:32.716Z,2.70
2017-12-12T12:09:58.696Z,2.70
2017-12-12T12:12:25.429Z,2.70
2017-12-12T12:14:51.421Z,2.70
2017-12-12T12:17:17.387Z,2.60
2017-12-12T12:19:44.120Z,2.60
2017-12-12T12:22:10.866Z,2.60
2017-12-12T12:24:36.868Z,2.60
2017-12-12T12:27:02.865Z,2.70
2017-12-12T12:29:28.835Z,2.60
2017-12-12T12:31:54.828Z,2.70
2017-12-12T12:34:20.790Z,2.80
2017-12-12T12:36:46.780Z,2.60
2017-12-12T12:39:13.111Z,2.60
2017-12-12T12:41:39.812Z,2.80
2017-12-12T12:44:05.785Z,2.80
2017-12-12T12:46:34.340Z,2.90
2017-12-12T12:49:00.321Z,2.80
2017-12-12T12:51:26.292Z,2.80
2017-12-12T12:53:52.308Z,2.70
2017-12-12T12:56:18.261Z,2.60
2017-12-12T12:58:44.249Z,2.60
2017-12-12T13:01:10.213Z,2.70
2017-12-12T13:03:36.188Z,2.60
2017-12-12T13:06:02.142Z,2.60
2017-12-12T13:08:28.156Z,2.50
2017-12-12T13:10:54.120Z,2.40
2017-12-12T13:13:20.105Z,2.50
2017-12-12T13:15:46.856Z,2.50
2017-12-12T13:18:13.115Z,2.50
2017-12-12T13:20:39.097Z,2.70
2017-12-12T13:23:06.124Z,2.70
2017-12-12T13:25:32.848Z,2.80
2017-12-12T13:27:58.816Z,2.70
2017-12-12T13:30:24.788Z,2.70
2017-12-12T13:32:52.224Z,2.50
2017-12-12T13:35:18.192Z,2.50
2017-12-12T13:37:44.906Z,2.60
2017-12-12T13:40:10.868Z,2.60
2017-12-12T13:42:36.868Z,2.70
2017-12-12T13:45:03.592Z,2.70
2017-12-12T13:47:29.589Z,2.70
2017-12-12T13:49:55.575Z,2.70
2017-12-12T13:52:21.544Z,2.80
2017-12-12T13:54:47.511Z,2.70
2017-12-12T13:57:13.704Z,2.70
2017-12-12T13:59:39.668Z,2.70
2017-12-12T14:02:05.616Z,2.70
2017-12-12T14:04:31.605Z,2.70
2017-12-12T14:06:57.570Z,2.80
2017-12-12T14:09:23.554Z,2.80
2017-12-12T14:11:49.540Z,2.80
2017-12-12T14:14:15.495Z,2.90
2017-12-12T14:16:41.468Z,2.90
2017-12-12T14:19:07.460Z,2.90
2017-12-12T14:21:33.428Z,2.90
2017-12-12T14:24:00.169Z,2.80
2017-12-12T14:26:26.929Z,2.90
2017-12-12T14:28:53.645Z,3.20
2017-12-12T14:31:20.384Z,3.40
2017-12-12T14:33:47.147Z,3.30
2017-12-12T14:36:13.130Z,3.20
2017-12-12T14:38:39.136Z,3.10
2017-12-12T14:41:05.125Z,3.00
2017-12-12T14:43:31.116Z,2.90
2017-12-12T14:45:57.868Z,2.90
2017-12-12T14:48:24.670Z,2.90
2017-12-12T14:50:50.639Z,2.90
2017-12-12T14:53:16.614Z,2.90
2017-12-12T14:55:42.600Z,2.90
2017-12-12T14:58:08.572Z,3.00
2017-12-12T15:00:34.546Z,2.90
2017-12-12T15:03:00.500Z,3.00
2017-12-12T15:05:26.485Z,3.00
2017-12-12T15:07:52.489Z,2.90
2017-12-12T15:10:18.448Z,3.00
2017-12-12T15:12:44.400Z,3.00
2017-12-12T15:15:10.544Z,3.10
2017-12-12T15:17:36.520Z,3.10
2017-12-12T15:20:02.488Z,3.10
2017-12-12T15:22:29.217Z,3.10
2017-12-12T15:24:55.941Z,3.10
2017-12-12T15:27:21.913Z,3.00
2017-12-12T15:29:48.131Z,3.00
2017-12-12T15:32:14.093Z,3.10
2017-12-12T15:34:40.093Z,3.20
2017-12-12T15:37:06.068Z,3.20
2017-12-12T15:39:32.784Z,3.30
2017-12-12T15:41:59.523Z,3.30
2017-12-12T15:44:25.501Z,3.30
2017-12-12T15:46:51.503Z,3.30
2017-12-12T15:49:17.460Z,3.30
2017-12-12T15:51:43.438Z,3.10
2017-12-12T15:54:10.168Z,3.10
2017-12-12T15:56:36.888Z,3.20
2017-12-12T15:59:02.852Z,3.20
2017-12-12T16:01:28.821Z,3.20
2017-12-12T16:03:54.782Z,3.40
2017-12-12T16:06:21.488Z,3.20
2017-12-12T16:08:47.476Z,3.20
2017-12-12T16:11:13.480Z,3.20
2017-12-12T16:13:39.455Z,3.20
2017-12-12T16:16:05.406Z,3.10
2017-12-12T16:18:31.408Z,3.20
2017-12-12T16:20:58.157Z,3.10
2017-12-12T16:23:24.888Z,3.20
2017-12-12T16:25:51.620Z,3.20
2017-12-12T16:28:17.617Z,3.10
2017-12-12T16:30:43.600Z,3.20
2017-12-12T16:33:09.857Z,3.20
2017-12-12T16:35:36.019Z,3.10
2017-12-12T16:38:01.972Z,3.00
2017-12-12T16:40:27.932Z,3.00
2017-12-12T16:42:53.924Z,3.00
2017-12-12T16:45:19.893Z,3.10
2017-12-12T16:47:45.881Z,3.20
2017-12-12T16:50:12.145Z,3.20
2017-12-12T16:52:38.875Z,3.10
2017-12-12T16:55:04.860Z,3.10
2017-12-12T16:57:30.863Z,3.10
2017-12-12T16:59:56.828Z,3.10
2017-12-12T17:02:22.817Z,3.10
2017-12-12T17:04:48.773Z,3.10
2017-12-12T17:07:14.769Z,3.10
2017-12-12T17:09:40.743Z,3.10
2017-12-12T17:12:06.740Z,3.10
2017-12-12T17:14:32.708Z,3.00
2017-12-12T17:16:58.676Z,3.00
2017-12-12T17:19:24.679Z,3.10
2017-12-12T17:21:50.632Z,3.00
2017-12-12T17:24:16.626Z,3.10
2017-12-12T17:26:42.858Z,3.10
2017-12-12T17:29:08.832Z,3.00
2017-12-12T17:31:35.557Z,3.10
2017-12-12T17:34:01.572Z,3.10
2017-12-12T17:36:27.536Z,3.10
2017-12-12T17:38:53.494Z,3.10
2017-12-12T17:41:19.480Z,3.10
2017-12-12T17:43:45.432Z,3.00
2017-12-12T17:46:11.401Z,2.90
2017-12-12T17:48:38.127Z,2.90
2017-12-12T17:51:04.146Z,2.90
2017-12-12T17:53:30.155Z,2.90
2017-12-12T17:55:56.317Z,2.90
2017-12-12T17:58:23.032Z,3.10
2017-12-12T18:00:49.003Z,3.10
2017-12-12T18:03:14.992Z,3.00
2017-12-12T18:05:41.696Z,2.90
2017-12-12T18:08:08.493Z,2.90
2017-12-12T18:10:34.467Z,2.80
2017-12-12T18:13:00.461Z,2.90
2017-12-12T18:15:26.480Z,2.90
2017-12-12T18:17:52.462Z,2.90
2017-12-12T18:20:19.207Z,2.90
2017-12-12T18:22:45.193Z,2.90
2017-12-12T18:25:11.186Z,2.80
2017-12-12T18:27:37.186Z,2.80
2017-12-12T18:30:03.945Z,2.80
2017-12-12T18:32:29.925Z,2.80
2017-12-12T18:34:56.692Z,2.80
2017-12-12T18:37:22.960Z,2.80
2017-12-12T18:39:48.948Z,2.80
2017-12-12T18:42:14.900Z,2.90
2017-12-12T18:44:40.921Z,2.90
2017-12-12T18:47:13.897Z,2.90
2017-12-12T18:49:39.873Z,2.80
2017-12-12T18:52:05.888Z,2.70
2017-12-12T18:54:32.624Z,2.80
2017-12-12T18:56:59.334Z,2.80
2017-12-12T18:59:25.331Z,2.80
2017-12-12T19:01:51.339Z,2.70
2017-12-12T19:04:17.306Z,2.80
2017-12-12T19:06:43.572Z,2.80
2017-12-12T19:09:09.554Z,2.80
2017-12-12T19:11:35.549Z,2.80
2017-12-12T19:14:01.600Z,2.80
2017-12-12T19:16:27.688Z,2.80
2017-12-12T19:18:53.665Z,2.90
2017-12-12T19:21:20.409Z,2.90
2017-12-12T19:23:47.553Z,2.90
2017-12-12T19:26:14.289Z,2.90
2017-12-12T19:28:40.988Z,2.90
2017-12-12T19:31:07.000Z,2.90
2017-12-12T19:33:32.964Z,3.00
2017-12-12T19:35:59.699Z,3.00
2017-12-12T19:38:25.729Z,2.90
2017-12-12T19:40:52.453Z,2.90
2017-12-12T19:43:18.509Z,2.90
2017-12-12T19:45:44.477Z,2.90
2017-12-12T19:48:10.460Z,2.80
2017-12-12T19:50:36.661Z,2.80
2017-12-12T19:53:03.457Z,2.80
2017-12-12T19:55:29.478Z,2.80
2017-12-12T19:57:55.504Z,2.80
2017-12-12T20:00:21.519Z,2.90
2017-12-12T20:02:47.562Z,2.90
2017-12-12T20:05:14.095Z,2.90
2017-12-12T20:07:40.087Z,2.90
2017-12-12T20:10:06.078Z,2.80
2017-12-12T20:12:33.208Z,2.90
2017-12-12T20:14:59.194Z,2.90
2017-12-12T20:17:25.217Z,2.90
2017-12-12T20:19:51.236Z,3.00
2017-12-12T20:22:17.228Z,3.00
2017-12-12T20:24:43.239Z,3.00
2017-12-12T20:27:10.269Z,2.80
2017-12-12T20:29:36.310Z,2.80
2017-12-12T20:32:03.063Z,2.70
2017-12-12T20:34:29.081Z,2.70
2017-12-12T20:36:55.136Z,2.70
2017-12-12T20:39:21.160Z,2.70
2017-12-12T20:41:47.143Z,2.70
2017-12-12T20:44:13.887Z,2.60
2017-12-12T20:46:40.089Z,2.50
2017-12-12T20:49:06.889Z,2.60
2017-12-12T20:51:32.857Z,2.60
2017-12-12T20:53:59.814Z,2.60
2017-12-12T20:56:25.803Z,2.60
2017-12-12T20:58:51.796Z,2.60
2017-12-12T21:01:17.797Z,2.60
2017-12-12T21:03:43.779Z,2.60
2017-12-12T21:06:10.519Z,2.50
2017-12-12T21:08:36.563Z,2.50
2017-12-12T21:11:03.269Z,2.60
2017-12-12T21:13:36.984Z,2.60
2017-12-12T21:16:03.729Z,2.60
2017-12-12T21:18:30.429Z,2.60
2017-12-12T21:20:56.402Z,2.60
2017-12-12T21:23:22.380Z,2.50
2017-12-12T21:25:48.352Z,2.60
2017-12-12T21:28:14.352Z,2.60
2017-12-12T21:30:41.107Z,2.60
2017-12-12T21:33:07.110Z,2.60
2017-12-12T21:35:33.824Z,2.60
2017-12-12T21:38:00.076Z,2.60
2017-12-12T21:40:26.871Z,2.60
2017-12-12T21:42:52.832Z,2.60
2017-12-12T21:45:18.808Z,3.00
2017-12-12T21:47:44.776Z,2.90
2017-12-12T21:50:11.509Z,2.70
2017-12-12T21:52:39.073Z,2.60
2017-12-12T21:55:05.106Z,2.60
2017-12-12T21:57:31.829Z,2.60
2017-12-12T21:59:57.864Z,2.60
2017-12-12T22:02:24.564Z,2.60
2017-12-12T22:04:50.816Z,2.60
2017-12-12T22:07:16.800Z,2.60
2017-12-12T22:09:42.778Z,2.70
2017-12-12T22:12:09.529Z,2.70
2017-12-12T22:14:35.510Z,2.70
2017-12-12T22:17:01.514Z,2.60
2017-12-12T22:19:27.501Z,2.60
2017-12-12T22:21:53.484Z,2.60
2017-12-12T22:24:19.463Z,2.60
2017-12-12T22:26:45.640Z,2.60
2017-12-12T22:29:12.341Z,2.60
2017-12-12T22:31:38.304Z,2.60
2017-12-12T22:34:05.240Z,2.60
2017-12-12T22:36:31.222Z,2.60
2017-12-12T22:38:57.476Z,2.60
2017-12-12T22:41:23.440Z,2.60
2017-12-12T22:43:50.828Z,2.60
2017-12-12T22:46:16.840Z,2.70
2017-12-12T22:48:42.879Z,2.60
2017-12-12T22:51:08.848Z,2.60
2017-12-12T22:53:35.588Z,2.60
2017-12-12T22:56:01.585Z,2.60
2017-12-12T22:58:27.625Z,2.70
2017-12-12T23:00:57.329Z,2.70
2017-12-12T23:03:24.072Z,2.60
2017-12-12T23:05:50.077Z,2.60
2017-12-12T23:08:16.105Z,2.70
2017-12-12T23:10:42.159Z,2.70
2017-12-12T23:13:08.139Z,2.60
2017-12-12T23:15:34.136Z,2.60
2017-12-12T23:18:00.157Z,2.60
2017-12-12T23:20:26.150Z,2.60
2017-12-12T23:22:52.131Z,2.60
2017-12-12T23:25:18.367Z,2.60
2017-12-12T23:27:44.324Z,2.70
2017-12-12T23:30:10.272Z,2.60
2017-12-12T23:32:36.248Z,2.60
2017-12-12T23:35:02.952Z,2.60
2017-12-12T23:37:28.955Z,2.60
2017-12-12T23:39:54.952Z,2.70
2017-12-12T23:42:20.924Z,2.60
2017-12-12T23:44:46.915Z,2.70
2017-12-12T23:47:13.176Z,2.60
2017-12-12T23:49:40.632Z,2.70
2017-12-12T23:52:06.617Z,2.70
2017-12-12T23:54:32.601Z,2.70
2017-12-12T23:56:59.305Z,2.70
2017-12-12T23:59:25.278Z,2.70
